Create Tblcommutelog Verified Points Advance Search
| # | Trip ID | Id Commuter | Trip Date | Trip Num | Current Lat | Current Lng | Delta Distance | Current Time | Activity | Activity Confidence | Current Speed | |
|---|---|---|---|---|---|---|---|---|---|---|---|---|
| 69861 | 250811_785232_6438355_0651 | 785232 | (not set) | (not set) | 38.901428200052 | -77.041168231993 | 9.1156 | 2025-08-11 07:42:23 | on_foot | 100 | -0.44703925898772 | |
| 69862 | 250811_785232_6438355_0651 | 785232 | (not set) | (not set) | 38.901428200052 | -77.041168231993 | 9.1156 | 2025-08-11 07:42:23 | on_foot | 100 | -0.44703925898772 | |
| 69863 | 250811_785232_6438355_0651 | 785232 | (not set) | (not set) | 38.901428200052 | -77.041168231993 | 9.1156 | 2025-08-11 07:42:23 | on_foot | 100 | -0.44703925898772 | |
| 69864 | 250811_775422_16511560_0705 | 775422 | (not set) | (not set) | 38.921590503641 | -77.195138156918 | 10.5988 | 2025-08-11 07:42:24 | in_vehicle | 100 | 12.485806503527 | |
| 69865 | 250811_777375_16513753_0658 | 777375 | (not set) | (not set) | 39.037225624533 | -76.748655916835 | 11.2393 | 2025-08-11 07:42:24 | unknown | 100 | 15.64190367198 | |
| 69866 | 250811_772512_16490104_0730 | 772512 | (not set) | (not set) | 39.173600609482 | -76.638305510201 | 9.3629 | 2025-08-11 07:42:25 | unknown | 100 | 12.284638836983 | |
| 69867 | 250811_785111_16426629_0659 | 785111 | (not set) | (not set) | 39.006340173733 | -77.050522513763 | 10.0789 | 2025-08-11 07:42:25 | unknown | 100 | 10.863053993402 | |
| 69868 | 250811_784389_6428266_0701 | 784389 | (not set) | (not set) | 38.92476062742 | -77.197436693127 | 26.3502 | 2025-08-11 07:42:25 | in_vehicle | 100 | 11.618550341091 | |
| 69869 | 250811_731669_16507744_0656 | 731669 | (not set) | (not set) | 38.782818071475 | -77.381979316227 | 15.8212 | 2025-08-11 07:42:26 | in_vehicle | 100 | 9.8348636977299 | |
| 69870 | 250811_762844_16460442_0635 | 762844 | (not set) | (not set) | 38.898231798629 | -77.005848659819 | 40.8442 | 2025-08-11 07:42:26 | on_foot | 100 | -0.44703925898772 | |
| 69871 | 250811_762844_16460442_0635 | 762844 | (not set) | (not set) | 38.898231798629 | -77.005848659819 | 40.8442 | 2025-08-11 07:42:26 | on_foot | 100 | -0.44703925898772 | |
| 69872 | 250811_765203_16507324_0721 | 765203 | (not set) | (not set) | 38.944857332502 | -76.866162407536 | 16.6299 | 2025-08-11 07:42:27 | in_vehicle | 100 | 12.619918281223 | |
| 69873 | 250811_770658_6426227_0733 | 770658 | (not set) | (not set) | 38.899963485973 | -77.085211027078 | 3.1635 | 2025-08-11 07:42:28 | in_vehicle | 100 | 9.6649887793146 | |
| 69874 | 250811_770658_6426227_0733 | 770658 | (not set) | (not set) | 38.899963485973 | -77.085211027078 | 3.1635 | 2025-08-11 07:42:28 | in_vehicle | 100 | 9.6649887793146 | |
| 69875 | 250811_669170_16500693_0704 | 669170 | (not set) | (not set) | 39.18160608848 | -77.293639453325 | 22.0307 | 2025-08-11 07:42:29 | in_vehicle | 100 | 7.9662395951612 | |
| 69876 | 250811_785147_16514010_0704 | 785147 | (not set) | (not set) | 38.970274842381 | -77.732074868832 | 28.0279 | 2025-08-11 07:42:29 | in_vehicle | 100 | 4.9666061673536 | |
| 69877 | 250811_784104_6438355_0658 | 784104 | (not set) | (not set) | 38.941523089095 | -77.061827351486 | 19.6121 | 2025-08-11 07:42:29 | in_vehicle | 100 | -0.44703925898772 | |
| 69878 | 250811_784608_16458763_0723 | 784608 | (not set) | (not set) | 38.798469370331 | -77.134515340161 | 7.5123 | 2025-08-11 07:42:30 | in_vehicle | 100 | 13.540819154738 | |
| 69879 | 250811_785264_6438355_0700 | 785264 | (not set) | (not set) | 38.894766819346 | -77.170221672827 | 16.5912 | 2025-08-11 07:42:30 | in_vehicle | 100 | 14.265022754298 | |
| 69880 | 250811_767309_6423049_0736 | 767309 | (not set) | (not set) | 38.89961466826 | -77.042688540541 | 0.3503 | 2025-08-11 07:42:30 | on_foot | 100 | 0.64373653294232 |